Time;durP1;ratioP1;P1;durP2;ratioP2;P2;SDS_P1;SDS_P2;PMS_P1;PMS_P2;Temp;Humidity;BMP_temperature;BMP_pressure;BME280_temperature;BME280_humidity;BME280_pressure;Samples;Min_cycle;Max_cycle;Signal;HPM_P1;HPM_P2
2022/08/06 00:02:08;;;;;;;10.52;9.90;;;;;;;;;;5044608;28;20036;-61
2022/08/06 00:04:33;;;;;;;9.90;9.30;;;;;;;;;;5041242;28;20063;-60
2022/08/06 00:06:59;;;;;;;10.00;9.20;;;;;;;;;;5042705;28;20053;-61
2022/08/06 00:09:24;;;;;;;8.38;7.88;;;;;;;;;;5046851;28;20477;-60
2022/08/06 00:11:49;;;;;;;8.90;8.30;;;;;;;;;;5046655;28;20048;-61
2022/08/06 00:14:15;;;;;;;9.05;8.45;;;;;;;;;;5043386;28;20034;-61
2022/08/06 00:16:40;;;;;;;10.02;9.43;;;;;;;;;;5047619;28;20041;-61
2022/08/06 00:19:06;;;;;;;9.70;9.10;;;;;;;;;;5043570;28;20045;-61
2022/08/06 00:21:32;;;;;;;9.07;8.48;;;;;;;;;;5041967;28;20100;-60
2022/08/06 00:23:57;;;;;;;15.32;14.48;;;;;;;;;;5032888;28;20016;-60
2022/08/06 00:26:24;;;;;;;9.63;9.02;;;;;;;;;;5043197;28;20029;-60
2022/08/06 00:28:49;;;;;;;25.10;23.77;;;;;;;;;;5042271;28;20025;-60
2022/08/06 00:31:15;;;;;;;25.63;24.27;;;;;;;;;;5042583;28;20386;-60
2022/08/06 00:33:41;;;;;;;30.55;28.92;;;;;;;;;;5044613;28;20093;-62
2022/08/06 00:36:07;;;;;;;28.42;26.92;;;;;;;;;;5042371;28;20474;-61
2022/08/06 00:38:32;;;;;;;15.30;14.45;;;;;;;;;;5040141;28;20067;-61
2022/08/06 00:40:58;;;;;;;18.80;17.80;;;;;;;;;;5042111;28;20040;-61
2022/08/06 00:43:23;;;;;;;18.88;17.88;;;;;;;;;;5045313;28;20029;-61
2022/08/06 00:45:48;;;;;;;22.55;21.35;;;;;;;;;;5040990;28;20048;-61
2022/08/06 00:48:14;;;;;;;28.55;27.05;;;;;;;;;;5041286;28;20036;-61
2022/08/06 00:50:40;;;;;;;21.58;20.42;;;;;;;;;;5041169;28;20045;-61
2022/08/06 00:53:05;;;;;;;22.02;20.83;;;;;;;;;;5040450;28;20033;-62
2022/08/06 00:55:31;;;;;;;25.92;24.52;;;;;;;;;;5042092;28;20466;-60
2022/08/06 00:57:57;;;;;;;25.20;23.83;;;;;;;;;;5044223;28;20037;-60
2022/08/06 01:00:22;;;;;;;20.92;19.77;;;;;;;;;;5043151;28;20385;-60
2022/08/06 01:02:48;;;;;;;22.80;21.58;;;;;;;;;;5041931;28;20165;-62
2022/08/06 01:05:13;;;;;;;25.02;23.70;;;;;;;;;;5036693;28;20328;-61
2022/08/06 01:07:38;;;;;;;20.92;19.80;;;;;;;;;;5035308;28;20044;-60
2022/08/06 01:10:04;;;;;;;23.42;22.17;;;;;;;;;;5042656;28;20029;-60
2022/08/06 01:12:30;;;;;;;26.25;24.88;;;;;;;;;;5041432;28;20072;-60
2022/08/06 01:14:55;;;;;;;31.73;30.08;;;;;;;;;;5044160;28;20454;-60
2022/08/06 01:17:32;;;;;;;31.13;29.50;;;;;;;;;;5044804;28;20371;-60
2022/08/06 01:20:33;;;;;;;23.13;21.90;;;;;;;;;;5043794;28;20055;-60
2022/08/06 01:23:15;;;;;;;19.45;17.98;;;;;;;;;;5038645;28;20111;-60
2022/08/06 01:25:53;;;;;;;22.48;21.25;;;;;;;;;;5044246;28;20029;-60
2022/08/06 01:28:29;;;;;;;20.65;19.55;;;;;;;;;;5045384;28;20510;-60
2022/08/06 01:31:02;;;;;;;18.52;17.52;;;;;;;;;;5046362;28;20099;-60
2022/08/06 01:33:36;;;;;;;23.30;21.85;;;;;;;;;;5047943;28;20083;-59
2022/08/06 01:36:07;;;;;;;17.52;16.55;;;;;;;;;;5048312;28;20116;-60
2022/08/06 01:38:34;;;;;;;;;;;;;;;;;;5042853;28;20037;-60
2022/08/06 01:41:04;;;;;;;13.45;12.65;;;;;;;;;;5043443;28;19950;-60
2022/08/06 01:43:32;;;;;;;12.82;12.10;;;;;;;;;;5042286;28;20061;-59
2022/08/06 01:45:59;;;;;;;14.50;13.68;;;;;;;;;;5042804;28;20308;-59
2022/08/06 01:48:27;;;;;;;15.30;14.45;;;;;;;;;;5040293;28;20040;-61
2022/08/06 01:50:55;;;;;;;14.10;13.30;;;;;;;;;;5043717;28;20133;-60
2022/08/06 01:53:28;;;;;;;16.05;15.15;;;;;;;;;;5048769;28;20025;-59
2022/08/06 01:55:57;;;;;;;11.80;11.05;;;;;;;;;;5048261;28;20479;-59
2022/08/06 01:58:31;;;;;;;12.95;12.05;;;;;;;;;;5044645;28;20098;-59
2022/08/06 02:00:59;;;;;;;11.15;10.45;;;;;;;;;;5039551;28;20029;-59
2022/08/06 02:03:30;;;;;;;8.85;8.25;;;;;;;;;;5042237;28;20353;-59
2022/08/06 02:05:57;;;;;;;10.02;9.43;;;;;;;;;;5040718;28;20039;-60
2022/08/06 02:08:25;;;;;;;10.13;9.52;;;;;;;;;;5045188;28;20033;-61
2022/08/06 02:10:53;;;;;;;10.63;10.00;;;;;;;;;;5039466;28;20064;-60
2022/08/06 02:13:21;;;;;;;10.00;9.35;;;;;;;;;;5042976;28;20021;-60
2022/08/06 02:15:49;;;;;;;10.98;10.27;;;;;;;;;;5042241;28;20625;-60
2022/08/06 02:18:17;;;;;;;10.13;9.52;;;;;;;;;;5045631;28;20032;-60
2022/08/06 02:20:47;;;;;;;11.13;10.43;;;;;;;;;;5043220;28;20059;-60
2022/08/06 02:23:19;;;;;;;11.15;10.48;;;;;;;;;;5043938;28;20039;-60
2022/08/06 02:25:46;;;;;;;10.20;9.60;;;;;;;;;;5047024;28;20035;-60
2022/08/06 02:28:14;;;;;;;10.45;9.75;;;;;;;;;;5045976;28;20063;-60
2022/08/06 02:30:42;;;;;;;10.30;9.70;;;;;;;;;;5045923;28;20075;-60
2022/08/06 02:33:09;;;;;;;11.02;10.38;;;;;;;;;;5047652;28;20420;-60
2022/08/06 02:35:39;;;;;;;10.82;10.18;;;;;;;;;;5029612;28;20025;-59
2022/08/06 02:38:12;;;;;;;10.07;9.47;;;;;;;;;;5042051;28;20037;-59
2022/08/06 02:40:44;;;;;;;10.75;10.13;;;;;;;;;;5044986;28;20363;-60
2022/08/06 02:43:16;;;;;;;9.80;9.20;;;;;;;;;;5042058;28;20107;-60
2022/08/06 02:45:48;;;;;;;11.27;10.57;;;;;;;;;;5039391;28;20037;-59
2022/08/06 02:48:23;;;;;;;10.27;9.68;;;;;;;;;;5042651;28;20041;-59
2022/08/06 02:50:49;;;;;;;10.05;9.45;;;;;;;;;;5046170;28;20060;-60
2022/08/06 02:53:29;;;;;;;11.02;10.35;;;;;;;;;;5044760;28;20078;-59
2022/08/06 02:55:59;;;;;;;11.75;11.05;;;;;;;;;;5045629;28;20053;-58
2022/08/06 02:58:46;;;;;;;10.88;10.23;;;;;;;;;;5041580;28;20470;-59
2022/08/06 03:01:15;;;;;;;11.02;10.38;;;;;;;;;;5062698;28;20025;-58
2022/08/06 03:03:43;;;;;;;11.95;11.25;;;;;;;;;;5047093;28;20113;-59
2022/08/06 03:06:12;;;;;;;11.35;10.65;;;;;;;;;;5039147;28;20021;-59
2022/08/06 03:08:38;;;;;;;11.73;11.02;;;;;;;;;;5044850;28;20568;-58
2022/08/06 03:11:06;;;;;;;11.82;11.13;;;;;;;;;;5051022;28;20035;-60
2022/08/06 03:13:33;;;;;;;12.20;11.50;;;;;;;;;;5049463;28;20073;-60
2022/08/06 03:15:59;;;;;;;10.68;10.05;;;;;;;;;;5046682;28;20422;-60
2022/08/06 03:18:26;;;;;;;11.73;11.00;;;;;;;;;;5043559;28;20039;-60
2022/08/06 03:20:52;;;;;;;10.45;9.80;;;;;;;;;;5045979;28;20037;-60
2022/08/06 03:23:19;;;;;;;12.07;11.38;;;;;;;;;;5047874;28;20078;-60
2022/08/06 03:25:45;;;;;;;11.38;10.68;;;;;;;;;;5049219;28;20031;-60
2022/08/06 03:28:12;;;;;;;10.23;9.63;;;;;;;;;;5048764;28;20118;-59
2022/08/06 03:30:39;;;;;;;10.90;10.25;;;;;;;;;;5046258;28;20120;-59
2022/08/06 03:33:09;;;;;;;9.20;8.60;;;;;;;;;;5048028;28;20115;-58
2022/08/06 03:35:35;;;;;;;8.87;8.27;;;;;;;;;;5046187;28;20041;-58
2022/08/06 03:38:01;;;;;;;9.43;8.82;;;;;;;;;;5045868;28;20522;-59
2022/08/06 03:40:29;;;;;;;10.27;9.68;;;;;;;;;;5050097;28;20025;-58
2022/08/06 03:42:54;;;;;;;10.25;9.65;;;;;;;;;;5047482;28;20033;-58
2022/08/06 03:45:20;;;;;;;9.63;9.02;;;;;;;;;;5044198;28;20510;-58
2022/08/06 03:47:51;;;;;;;10.57;9.93;;;;;;;;;;5046895;28;20037;-59
2022/08/06 03:50:21;;;;;;;9.32;8.73;;;;;;;;;;5042520;28;20035;-58
2022/08/06 03:52:55;;;;;;;10.43;9.73;;;;;;;;;;5042595;28;20017;-58
2022/08/06 03:55:24;;;;;;;10.00;9.40;;;;;;;;;;5047401;28;20029;-58
2022/08/06 03:57:52;;;;;;;9.75;9.15;;;;;;;;;;5044967;28;20427;-58
2022/08/06 04:00:20;;;;;;;9.32;8.73;;;;;;;;;;5047418;28;20414;-58
2022/08/06 04:02:52;;;;;;;8.43;7.90;;;;;;;;;;5048877;28;20111;-58
2022/08/06 04:05:24;;;;;;;8.38;7.88;;;;;;;;;;5042723;28;20043;-58
2022/08/06 04:07:53;;;;;;;8.15;7.65;;;;;;;;;;5045296;28;20541;-57
2022/08/06 04:10:19;;;;;;;9.95;9.30;;;;;;;;;;5045064;28;20063;-58
2022/08/06 04:12:45;;;;;;;10.85;10.20;;;;;;;;;;5044714;28;20033;-58
2022/08/06 04:15:14;;;;;;;8.93;8.32;;;;;;;;;;5047263;28;20106;-58
2022/08/06 04:17:42;;;;;;;9.43;8.82;;;;;;;;;;5044011;28;20049;-59
2022/08/06 04:20:09;;;;;;;9.20;8.60;;;;;;;;;;5048367;28;20367;-59
2022/08/06 04:22:35;;;;;;;8.40;7.88;;;;;;;;;;5046383;28;20216;-59
2022/08/06 04:25:00;;;;;;;9.85;9.25;;;;;;;;;;5046007;28;20036;-59
2022/08/06 04:27:27;;;;;;;10.90;10.23;;;;;;;;;;5047172;28;20515;-61
2022/08/06 04:29:54;;;;;;;11.10;10.40;;;;;;;;;;5048286;28;20374;-59
2022/08/06 04:32:22;;;;;;;9.77;9.13;;;;;;;;;;5047428;28;20067;-58
2022/08/06 04:34:48;;;;;;;9.60;9.00;;;;;;;;;;5046095;28;20131;-58
2022/08/06 04:37:14;;;;;;;9.48;8.88;;;;;;;;;;5046683;28;20407;-58
2022/08/06 04:39:40;;;;;;;9.50;8.90;;;;;;;;;;5041398;28;20025;-59
2022/08/06 04:42:06;;;;;;;9.77;9.18;;;;;;;;;;5041517;28;20116;-58
2022/08/06 04:44:33;;;;;;;8.95;8.30;;;;;;;;;;5045105;28;20106;-58
2022/08/06 04:46:59;;;;;;;8.70;8.18;;;;;;;;;;5046408;28;20078;-58
2022/08/06 04:49:24;;;;;;;9.20;8.60;;;;;;;;;;5047273;28;20462;-59
2022/08/06 04:51:50;;;;;;;9.55;8.95;;;;;;;;;;5043128;28;20041;-59
2022/08/06 04:54:16;;;;;;;7.63;7.13;;;;;;;;;;5040869;28;20063;-58
2022/08/06 04:56:42;;;;;;;7.93;7.43;;;;;;;;;;5042247;28;20090;-58
2022/08/06 04:59:08;;;;;;;10.50;9.90;;;;;;;;;;5045304;28;20424;-58
2022/08/06 05:01:35;;;;;;;8.48;7.95;;;;;;;;;;5047437;28;20116;-58
2022/08/06 05:04:01;;;;;;;8.07;7.57;;;;;;;;;;5047769;28;20123;-59
2022/08/06 05:06:52;;;;;;;9.27;8.68;;;;;;;;;;5039478;28;20021;-58
2022/08/06 05:09:22;;;;;;;10.07;9.48;;;;;;;;;;5046179;28;20032;-58
2022/08/06 05:11:52;;;;;;;8.23;7.72;;;;;;;;;;5050781;28;20056;-58
2022/08/06 05:14:30;;;;;;;8.88;8.32;;;;;;;;;;5049734;28;20371;-58
2022/08/06 05:16:56;;;;;;;9.90;9.07;;;;;;;;;;5042248;28;20040;-59
2022/08/06 05:19:28;;;;;;;8.50;8.00;;;;;;;;;;5038342;28;20455;-58
2022/08/06 05:21:56;;;;;;;10.05;9.45;;;;;;;;;;5044112;28;20029;-58
2022/08/06 05:24:22;;;;;;;10.52;9.93;;;;;;;;;;5046676;28;20041;-58
2022/08/06 05:26:48;;;;;;;8.30;7.80;;;;;;;;;;5041896;28;20117;-58
2022/08/06 05:29:19;;;;;;;11.15;10.48;;;;;;;;;;5045179;28;20060;-58
2022/08/06 05:31:44;;;;;;;8.25;7.75;;;;;;;;;;5042950;28;20041;-58
2022/08/06 05:34:11;;;;;;;9.90;9.30;;;;;;;;;;5044286;28;20103;-58
2022/08/06 05:36:37;;;;;;;10.25;9.35;;;;;;;;;;5046952;28;20257;-58
2022/08/06 05:39:03;;;;;;;10.23;9.63;;;;;;;;;;5045962;28;20031;-58
2022/08/06 05:41:29;;;;;;;11.20;10.50;;;;;;;;;;5044437;28;20845;-59
2022/08/06 05:43:54;;;;;;;10.70;10.05;;;;;;;;;;5044714;28;20046;-59
2022/08/06 05:46:21;;;;;;;8.27;7.78;;;;;;;;;;5051679;28;20020;-58
2022/08/06 05:49:06;;;;;;;11.27;10.57;;;;;;;;;;5046749;28;20358;-59
2022/08/06 05:51:52;;;;;;;11.05;10.38;;;;;;;;;;5048420;28;20119;-58
2022/08/06 05:54:27;;;;;;;10.02;9.43;;;;;;;;;;5052165;28;20474;-59
2022/08/06 05:57:02;;;;;;;8.98;8.38;;;;;;;;;;5041820;28;20028;-58
2022/08/06 05:59:31;;;;;;;9.55;8.95;;;;;;;;;;5041269;28;20187;-58
2022/08/06 06:01:57;;;;;;;8.88;8.32;;;;;;;;;;5042524;28;20372;-59
2022/08/06 06:04:24;;;;;;;9.50;8.90;;;;;;;;;;5041464;28;20072;-59
2022/08/06 06:06:50;;;;;;;10.18;9.57;;;;;;;;;;5046499;28;20028;-59
2022/08/06 06:09:16;;;;;;;8.40;7.90;;;;;;;;;;5040885;28;20059;-58
2022/08/06 06:11:42;;;;;;;8.18;7.68;;;;;;;;;;5042956;28;20076;-58
2022/08/06 06:14:27;;;;;;;9.40;8.80;;;;;;;;;;5044140;28;20318;-58
2022/08/06 06:17:15;;;;;;;9.70;9.10;;;;;;;;;;5042862;28;20037;-59
2022/08/06 06:19:40;;;;;;;9.95;9.32;;;;;;;;;;5043561;28;20119;-58
2022/08/06 06:22:22;;;;;;;9.35;8.75;;;;;;;;;;5045486;28;20562;-57
2022/08/06 06:25:13;;;;;;;9.60;9.00;;;;;;;;;;5043834;28;20107;-58
2022/08/06 06:27:47;;;;;;;;;;;;;;;;;;5039651;28;20065;-58
2022/08/06 06:30:42;;;;;;;8.23;7.63;;;;;;;;;;5040541;28;19927;-58
2022/08/06 06:33:19;;;;;;;8.32;7.82;;;;;;;;;;5037738;28;20466;-58
2022/08/06 06:35:57;;;;;;;10.68;10.02;;;;;;;;;;5040487;28;20090;-58
2022/08/06 06:38:43;;;;;;;10.00;9.40;;;;;;;;;;5044395;28;20033;-58
2022/08/06 06:41:40;;;;;;;9.18;8.57;;;;;;;;;;5044549;28;20511;-58
2022/08/06 06:44:13;;;;;;;6.32;5.93;;;;;;;;;;5041589;28;20119;-58
2022/08/06 06:46:56;;;;;;;6.70;6.20;;;;;;;;;;5043320;28;20546;-58
2022/08/06 06:49:44;;;;;;;5.60;5.20;;;;;;;;;;5046985;28;20425;-58
2022/08/06 06:52:15;;;;;;;7.18;6.68;;;;;;;;;;5045780;28;20371;-58
2022/08/06 06:54:48;;;;;;;6.63;6.03;;;;;;;;;;5044121;28;20354;-58
2022/08/06 06:57:18;;;;;;;7.30;6.80;;;;;;;;;;5048445;28;20043;-58
2022/08/06 06:59:46;;;;;;;;;;;;;;;;;;5049014;28;20509;-58
2022/08/06 07:02:19;;;;;;;7.05;6.55;;;;;;;;;;5043120;28;20261;-58
2022/08/06 07:04:48;;;;;;;7.00;6.50;;;;;;;;;;5046724;28;20033;-58
2022/08/06 07:07:16;;;;;;;7.35;6.85;;;;;;;;;;5045697;28;20029;-58
2022/08/06 07:09:43;;;;;;;6.55;6.10;;;;;;;;;;5045914;28;20265;-58
2022/08/06 07:12:10;;;;;;;5.45;5.05;;;;;;;;;;5048418;28;20021;-58
2022/08/06 07:14:38;;;;;;;4.90;4.50;;;;;;;;;;5046944;28;20037;-58
2022/08/06 07:17:05;;;;;;;4.90;4.50;;;;;;;;;;5045979;28;20489;-58
2022/08/06 07:19:31;;;;;;;6.07;5.43;;;;;;;;;;5048312;28;20405;-57
2022/08/06 07:21:58;;;;;;;5.65;5.25;;;;;;;;;;5046265;28;20506;-58
2022/08/06 07:24:24;;;;;;;5.47;5.03;;;;;;;;;;5046076;28;20037;-58
2022/08/06 07:26:53;;;;;;;5.70;5.30;;;;;;;;;;5042962;28;20033;-57
2022/08/06 07:29:19;;;;;;;7.53;7.03;;;;;;;;;;5048515;28;20032;-58
2022/08/06 07:31:47;;;;;;;7.68;7.18;;;;;;;;;;5043736;28;20056;-58
2022/08/06 07:34:14;;;;;;;7.10;6.60;;;;;;;;;;5042243;28;20036;-58
2022/08/06 07:36:47;;;;;;;5.88;5.47;;;;;;;;;;5044403;28;20061;-57
2022/08/06 07:39:24;;;;;;;7.13;6.63;;;;;;;;;;5045801;28;20056;-57
2022/08/06 07:41:52;;;;;;;6.55;6.07;;;;;;;;;;5042353;28;20037;-57
2022/08/06 07:44:20;;;;;;;9.18;8.55;;;;;;;;;;5044808;28;20034;-58
2022/08/06 07:46:50;;;;;;;10.85;10.20;;;;;;;;;;5046207;28;20105;-57
2022/08/06 07:49:18;;;;;;;9.60;9.00;;;;;;;;;;5046825;28;20056;-58
2022/08/06 07:51:45;;;;;;;11.18;10.48;;;;;;;;;;5047448;28;20059;-58
2022/08/06 07:54:11;;;;;;;10.30;9.70;;;;;;;;;;5047279;28;20482;-57
2022/08/06 07:56:39;;;;;;;9.63;9.02;;;;;;;;;;5046547;28;20119;-58
2022/08/06 07:59:06;;;;;;;10.25;9.65;;;;;;;;;;5043395;28;20390;-58
2022/08/06 08:01:32;;;;;;;10.48;9.88;;;;;;;;;;5042457;28;20049;-57
2022/08/06 08:06:43;;;;;;;11.13;10.45;;;;;;;;;;5041684;28;20514;-58
2022/08/06 08:09:13;;;;;;;14.48;13.68;;;;;;;;;;5042594;28;20036;-58
2022/08/06 08:11:42;;;;;;;12.25;11.52;;;;;;;;;;5043662;28;20044;-58
2022/08/06 08:14:09;;;;;;;17.40;16.45;;;;;;;;;;5045758;28;20028;-58
2022/08/06 08:16:37;;;;;;;16.48;15.57;;;;;;;;;;5043385;28;20041;-57
2022/08/06 08:19:03;;;;;;;14.82;14.00;;;;;;;;;;5041959;28;20037;-58
2022/08/06 08:21:29;;;;;;;11.48;10.77;;;;;;;;;;5041723;28;20045;-58
2022/08/06 08:23:55;;;;;;;10.63;10.00;;;;;;;;;;5040733;28;20083;-57
2022/08/06 08:26:21;;;;;;;14.75;13.93;;;;;;;;;;5041657;28;20481;-58
2022/08/06 08:28:46;;;;;;;26.63;25.23;;;;;;;;;;5045998;28;20414;-57
2022/08/06 08:31:13;;;;;;;32.20;30.45;;;;;;;;;;5042658;28;20048;-58
2022/08/06 08:33:39;;;;;;;21.55;20.40;;;;;;;;;;5039772;28;20340;-58
2022/08/06 08:36:05;;;;;;;24.20;22.90;;;;;;;;;;5040885;28;20125;-57
2022/08/06 08:38:32;;;;;;;17.02;16.10;;;;;;;;;;5041780;28;20128;-58
2022/08/06 08:41:04;;;;;;;21.10;19.98;;;;;;;;;;5042340;28;20032;-58
2022/08/06 08:43:35;;;;;;;21.63;20.45;;;;;;;;;;5045720;28;20048;-57
2022/08/06 08:46:02;;;;;;;22.35;21.15;;;;;;;;;;5045204;28;20029;-57
2022/08/06 08:48:30;;;;;;;20.17;19.08;;;;;;;;;;5050001;28;20379;-57
2022/08/06 08:50:58;;;;;;;17.58;16.60;;;;;;;;;;5043063;28;20110;-59
2022/08/06 08:53:37;;;;;;;29.25;27.63;;;;;;;;;;5041670;28;20036;-58
2022/08/06 08:56:03;;;;;;;33.50;31.77;;;;;;;;;;5042530;28;20429;-57
2022/08/06 08:58:31;;;;;;;31.33;29.73;;;;;;;;;;5044363;28;20105;-58
2022/08/06 09:00:57;;;;;;;22.27;20.65;;;;;;;;;;5043590;28;20032;-57
2022/08/06 09:03:23;;;;;;;33.83;32.10;;;;;;;;;;5043845;28;20098;-58
2022/08/06 09:05:49;;;;;;;32.55;30.85;;;;;;;;;;5044482;28;20029;-58
2022/08/06 09:08:15;;;;;;;42.90;40.75;;;;;;;;;;5037274;28;20108;-58
2022/08/06 09:10:41;;;;;;;44.90;42.65;;;;;;;;;;5040321;28;20029;-58
2022/08/06 09:13:06;;;;;;;40.35;38.28;;;;;;;;;;5046148;28;20414;-58
2022/08/06 09:15:32;;;;;;;48.60;46.15;;;;;;;;;;5044888;28;20196;-57
2022/08/06 09:17:57;;;;;;;49.70;47.20;;;;;;;;;;5046267;28;20047;-58
2022/08/06 09:20:22;;;;;;;43.70;41.47;;;;;;;;;;5043700;28;20029;-58
2022/08/06 09:22:50;;;;;;;45.95;43.65;;;;;;;;;;5043759;28;20654;-58
2022/08/06 09:25:35;;;;;;;44.17;41.92;;;;;;;;;;5041987;28;20367;-58
2022/08/06 09:28:00;;;;;;;51.35;48.75;;;;;;;;;;5043718;28;20394;-58
2022/08/06 09:30:26;;;;;;;49.13;46.63;;;;;;;;;;5043037;28;20039;-58
2022/08/06 09:32:55;;;;;;;48.75;46.25;;;;;;;;;;5044239;28;20354;-58
2022/08/06 09:35:23;;;;;;;49.88;47.38;;;;;;;;;;5042803;28;20137;-58
2022/08/06 09:37:50;;;;;;;53.03;50.38;;;;;;;;;;5041893;28;20599;-58
2022/08/06 09:40:19;;;;;;;51.65;49.05;;;;;;;;;;5043760;28;20040;-58
2022/08/06 09:42:50;;;;;;;34.55;32.78;;;;;;;;;;5039487;28;20454;-58
2022/08/06 09:45:18;;;;;;;32.70;31.00;;;;;;;;;;5038281;28;20471;-58
2022/08/06 09:47:45;;;;;;;49.25;46.75;;;;;;;;;;5043662;28;20040;-58
2022/08/06 09:50:10;;;;;;;48.70;46.25;;;;;;;;;;5045111;28;20107;-57
2022/08/06 09:52:36;;;;;;;50.03;47.50;;;;;;;;;;5045552;28;20585;-58
2022/08/06 09:55:02;;;;;;;48.13;45.72;;;;;;;;;;5042727;28;20640;-58
2022/08/06 09:57:44;;;;;;;46.13;43.80;;;;;;;;;;5039857;28;20592;-58
2022/08/06 10:00:11;;;;;;;40.00;37.97;;;;;;;;;;5039899;28;20029;-57
2022/08/06 10:02:38;;;;;;;47.63;45.22;;;;;;;;;;5043560;28;20033;-58
2022/08/06 10:05:11;;;;;;;47.45;45.05;;;;;;;;;;5041717;28;20021;-57
2022/08/06 10:07:37;;;;;;;42.38;40.22;;;;;;;;;;5041614;28;20041;-57
2022/08/06 10:10:04;;;;;;;36.70;34.80;;;;;;;;;;5041621;28;20422;-58
2022/08/06 10:12:30;;;;;;;21.95;20.75;;;;;;;;;;5041986;28;20478;-58
2022/08/06 10:14:56;;;;;;;25.58;24.23;;;;;;;;;;5042065;28;20035;-58
2022/08/06 10:17:23;;;;;;;35.78;33.85;;;;;;;;;;5039767;28;20041;-58
2022/08/06 10:20:04;;;;;;;26.65;25.25;;;;;;;;;;5043868;28;20026;-58
2022/08/06 10:22:30;;;;;;;26.58;25.17;;;;;;;;;;5043015;28;20367;-58
2022/08/06 10:24:59;;;;;;;23.45;22.23;;;;;;;;;;5041819;28;20047;-58
2022/08/06 10:27:35;;;;;;;16.73;15.82;;;;;;;;;;5040536;28;20366;-59
2022/08/06 10:30:07;;;;;;;15.60;14.70;;;;;;;;;;5040990;28;20123;-58
2022/08/06 10:32:53;;;;;;;22.63;21.42;;;;;;;;;;5037057;28;20029;-58
2022/08/06 10:35:21;;;;;;;35.03;33.22;;;;;;;;;;5042087;28;20033;-58
2022/08/06 10:37:52;;;;;;;23.38;22.13;;;;;;;;;;5045417;28;20044;-59
2022/08/06 10:40:20;;;;;;;31.73;30.13;;;;;;;;;;5044351;28;20437;-58
2022/08/06 10:42:46;;;;;;;16.02;15.13;;;;;;;;;;5037727;28;20350;-58
2022/08/06 10:45:11;;;;;;;36.17;34.33;;;;;;;;;;5039616;28;20025;-59
2022/08/06 10:47:39;;;;;;;16.63;15.63;;;;;;;;;;5042959;28;20215;-59
2022/08/06 10:50:05;;;;;;;19.90;18.80;;;;;;;;;;5040487;28;20450;-59
2022/08/06 10:52:31;;;;;;;19.45;18.40;;;;;;;;;;5041254;28;20049;-59
2022/08/06 10:54:59;;;;;;;32.90;31.20;;;;;;;;;;5043119;28;20345;-58
2022/08/06 10:57:26;;;;;;;16.08;15.18;;;;;;;;;;5040813;28;20030;-59
2022/08/06 10:59:52;;;;;;;20.83;19.73;;;;;;;;;;5041801;28;20290;-59
2022/08/06 11:02:42;;;;;;;26.70;25.30;;;;;;;;;;5036138;28;20333;-59
2022/08/06 11:05:11;;;;;;;;;;;;;;;;;;5042093;28;20434;-60
2022/08/06 11:08:02;;;;;;;16.65;15.75;;;;;;;;;;5039374;28;19908;-59
2022/08/06 11:10:46;;;;;;;36.70;34.83;;;;;;;;;;5041503;28;20060;-59
2022/08/06 11:13:25;;;;;;;24.95;23.65;;;;;;;;;;5042411;28;20034;-59
2022/08/06 11:15:52;;;;;;;47.13;44.72;;;;;;;;;;5035469;28;20486;-60
2022/08/06 11:18:17;;;;;;;51.50;48.88;;;;;;;;;;5037653;28;20025;-58
2022/08/06 11:20:45;;;;;;;51.20;48.63;;;;;;;;;;5040956;28;20037;-58
2022/08/06 11:23:13;;;;;;;43.05;40.88;;;;;;;;;;5044096;28;20041;-59
2022/08/06 11:25:44;;;;;;;42.10;39.97;;;;;;;;;;5040668;28;20628;-59
2022/08/06 11:28:13;;;;;;;;;;;;;;;;;;5041089;28;20029;-59
2022/08/06 11:30:51;;;;;;;15.37;14.50;;;;;;;;;;5041202;28;19958;-59
2022/08/06 11:33:28;;;;;;;26.35;24.98;;;;;;;;;;5041286;28;20733;-59
2022/08/06 11:35:54;;;;;;;43.08;40.90;;;;;;;;;;5042240;28;20543;-59
2022/08/06 11:38:47;;;;;;;23.80;22.52;;;;;;;;;;5043320;28;20025;-59
2022/08/06 11:41:24;;;;;;;59.53;56.53;;;;;;;;;;5043689;28;20052;-59
2022/08/06 11:44:10;;;;;;;57.67;54.78;;;;;;;;;;5044664;28;20033;-60
2022/08/06 11:46:40;;;;;;;52.35;49.70;;;;;;;;;;5043843;28;20503;-59
2022/08/06 11:49:13;;;;;;;75.50;71.78;;;;;;;;;;5045840;28;20101;-59
2022/08/06 11:51:42;;;;;;;54.95;52.20;;;;;;;;;;5044657;28;20052;-59
2022/08/06 11:54:19;;;;;;;67.65;64.30;;;;;;;;;;5040460;28;20071;-59
2022/08/06 11:57:06;;;;;;;63.65;60.47;;;;;;;;;;5044924;28;20043;-59
2022/08/06 11:59:44;;;;;;;67.47;64.13;;;;;;;;;;5048422;28;20523;-59
2022/08/06 12:02:11;;;;;;;64.22;61.05;;;;;;;;;;5042689;28;20036;-59
2022/08/06 12:04:36;;;;;;;79.45;75.55;;;;;;;;;;5045076;28;20043;-59
2022/08/06 12:07:19;;;;;;;75.75;72.00;;;;;;;;;;5040067;28;20371;-59
2022/08/06 12:10:00;;;;;;;82.50;78.45;;;;;;;;;;5043138;28;20061;-59
2022/08/06 12:12:27;;;;;;;70.88;67.38;;;;;;;;;;5045380;28;20071;-59
2022/08/06 12:14:53;;;;;;;71.32;67.78;;;;;;;;;;5046885;28;20478;-59
2022/08/06 12:17:20;;;;;;;67.00;63.65;;;;;;;;;;5050220;28;20095;-59
2022/08/06 12:19:51;;;;;;;83.95;79.85;;;;;;;;;;5045120;28;20372;-58
2022/08/06 12:22:19;;;;;;;74.57;70.88;;;;;;;;;;5044519;28;20044;-59
2022/08/06 12:24:48;;;;;;;64.75;61.53;;;;;;;;;;5045297;28;20112;-58
2022/08/06 12:27:15;;;;;;;75.53;71.78;;;;;;;;;;5043891;28;20021;-59
2022/08/06 12:29:41;;;;;;;77.40;73.60;;;;;;;;;;5042728;28;20065;-58
2022/08/06 12:32:22;;;;;;;69.78;66.30;;;;;;;;;;5041272;28;20486;-59
2022/08/06 12:34:48;;;;;;;71.38;67.82;;;;;;;;;;5043509;28;20702;-59
2022/08/06 12:37:15;;;;;;;79.50;75.60;;;;;;;;;;5041483;28;20040;-59
2022/08/06 12:42:26;;;;;;;108.35;103.05;;;;;;;;;;5043705;28;20070;-58
2022/08/06 12:44:52;;;;;;;84.90;80.72;;;;;;;;;;5047658;28;20276;-59
2022/08/06 12:47:18;;;;;;;83.90;79.80;;;;;;;;;;5044373;28;20033;-59
2022/08/06 12:49:44;;;;;;;104.03;98.90;;;;;;;;;;5045257;28;20040;-58
2022/08/06 12:52:21;;;;;;;105.43;100.25;;;;;;;;;;5049759;28;20032;-58
2022/08/06 12:54:47;;;;;;;108.57;103.25;;;;;;;;;;5045614;28;20041;-58
2022/08/06 12:57:24;;;;;;;90.07;85.65;;;;;;;;;;5042999;28;20033;-58
2022/08/06 12:59:50;;;;;;;71.53;67.97;;;;;;;;;;5042732;28;20041;-58
2022/08/06 13:02:18;;;;;;;74.40;70.70;;;;;;;;;;5044543;28;20121;-57
2022/08/06 13:04:48;;;;;;;79.78;75.85;;;;;;;;;;5043310;28;20469;-57
2022/08/06 13:07:15;;;;;;;73.55;69.88;;;;;;;;;;5047567;28;20044;-58
2022/08/06 13:09:42;;;;;;;63.50;60.35;;;;;;;;;;5046976;28;20046;-59
2022/08/06 13:12:19;;;;;;;84.95;80.72;;;;;;;;;;5044931;28;20473;-59
2022/08/06 13:14:52;;;;;;;82.35;78.28;;;;;;;;;;5043287;28;20120;-58
2022/08/06 13:17:21;;;;;;;114.45;108.85;;;;;;;;;;5043740;28;20054;-59
2022/08/06 13:19:56;;;;;;;86.82;82.55;;;;;;;;;;5040576;28;20032;-59
2022/08/06 13:22:22;;;;;;;84.70;80.47;;;;;;;;;;5041315;28;20137;-59
2022/08/06 13:25:05;;;;;;;106.85;101.60;;;;;;;;;;5045824;28;20037;-59
2022/08/06 13:27:36;;;;;;;92.47;87.93;;;;;;;;;;5042943;28;20040;-59
2022/08/06 13:30:05;;;;;;;151.80;144.27;;;;;;;;;;5041839;28;20029;-58
2022/08/06 13:32:30;;;;;;;148.00;140.68;;;;;;;;;;5045304;28;20035;-60
2022/08/06 13:34:57;;;;;;;154.10;146.50;;;;;;;;;;5045752;28;20028;-61
2022/08/06 13:37:46;;;;;;;149.20;141.88;;;;;;;;;;5040301;28;20040;-59
2022/08/06 13:40:12;;;;;;;136.23;129.55;;;;;;;;;;5047189;28;20029;-59
2022/08/06 13:42:55;;;;;;;141.65;134.65;;;;;;;;;;5043440;28;20028;-59
2022/08/06 13:45:23;;;;;;;140.70;133.80;;;;;;;;;;5041773;28;20125;-59
2022/08/06 13:47:52;;;;;;;190.85;181.57;;;;;;;;;;5042918;28;20036;-59
2022/08/06 13:50:19;;;;;;;182.38;173.40;;;;;;;;;;5041772;28;20385;-60
2022/08/06 13:52:45;;;;;;;142.70;135.65;;;;;;;;;;5040220;28;20112;-61
2022/08/06 13:55:10;;;;;;;138.00;131.25;;;;;;;;;;5039848;28;20578;-58
2022/08/06 13:57:36;;;;;;;151.05;143.60;;;;;;;;;;5036475;28;20068;-58
2022/08/06 14:00:08;;;;;;;153.35;145.82;;;;;;;;;;5037485;28;20039;-58
2022/08/06 14:02:34;;;;;;;169.98;161.60;;;;;;;;;;5040440;28;20029;-58
2022/08/06 14:04:59;;;;;;;181.23;172.25;;;;;;;;;;5040609;28;20037;-58
2022/08/06 14:07:25;;;;;;;156.55;148.82;;;;;;;;;;5049110;28;20033;-58
2022/08/06 14:09:50;;;;;;;145.15;138.00;;;;;;;;;;5048288;28;20029;-58
2022/08/06 14:12:15;;;;;;;143.48;136.43;;;;;;;;;;5043866;28;20112;-58
2022/08/06 14:14:41;;;;;;;183.25;174.25;;;;;;;;;;5041519;28;20060;-58
2022/08/06 14:17:06;;;;;;;174.75;166.20;;;;;;;;;;5040972;28;20087;-58
2022/08/06 14:19:32;;;;;;;214.30;203.85;;;;;;;;;;5043153;28;20033;-58
2022/08/06 14:21:57;;;;;;;186.48;177.35;;;;;;;;;;5042209;28;20041;-59
2022/08/06 14:24:22;;;;;;;175.63;167.00;;;;;;;;;;5044254;28;20119;-58
2022/08/06 14:26:48;;;;;;;211.88;201.52;;;;;;;;;;5039537;28;20067;-58
2022/08/06 14:29:13;;;;;;;196.32;186.70;;;;;;;;;;5040233;28;20112;-58
2022/08/06 14:31:38;;;;;;;211.63;201.30;;;;;;;;;;5040017;28;20048;-58
2022/08/06 14:34:04;;;;;;;201.55;191.70;;;;;;;;;;5041557;28;20100;-58
2022/08/06 14:36:30;;;;;;;192.40;182.95;;;;;;;;;;5039891;28;20049;-58
2022/08/06 14:38:56;;;;;;;205.80;195.70;;;;;;;;;;5041241;28;20029;-58
2022/08/06 14:46:50;;;;;;;213.38;202.98;;;;;;;;;;5043788;28;20033;-57
2022/08/06 14:49:15;;;;;;;204.38;194.43;;;;;;;;;;5045297;28;20090;-58